createdAt,value
2022-09-07T10:23:00.609Z,1.80
2022-09-07T10:24:01.252Z,1.90
2022-09-07T10:25:00.295Z,1.70
2022-09-07T10:26:01.124Z,1.70
2022-09-07T10:27:00.083Z,1.60
2022-09-07T10:28:00.073Z,2.00
2022-09-07T10:29:09.284Z,1.70
2022-09-07T10:30:01.047Z,1.70
2022-09-07T10:31:00.098Z,1.80
2022-09-07T10:32:00.052Z,1.70
2022-09-07T10:33:00.076Z,1.70
2022-09-07T10:35:00.024Z,2.10
2022-09-07T10:35:59.968Z,2.20
2022-09-07T10:36:59.968Z,2.10
2022-09-07T10:37:59.933Z,2.40
2022-09-07T10:38:59.940Z,2.50
2022-09-07T10:40:00.790Z,2.20
2022-09-07T10:40:59.902Z,2.40
2022-09-07T10:41:59.872Z,2.30
2022-09-07T10:43:59.855Z,2.70
2022-09-07T10:44:59.833Z,2.50
2022-09-07T10:45:59.882Z,2.90
2022-09-07T10:46:59.977Z,2.80
2022-09-07T10:47:59.792Z,2.70
2022-09-07T10:48:59.827Z,2.90
2022-09-07T10:51:05.075Z,2.70
2022-09-07T10:52:00.738Z,3.00
2022-09-07T10:52:59.740Z,2.70
2022-09-07T10:54:59.701Z,2.70
2022-09-07T10:55:59.697Z,2.50
2022-09-07T10:56:59.692Z,2.80
2022-09-07T10:57:59.691Z,2.90
2022-09-07T10:59:03.394Z,2.70
2022-09-07T11:00:14.937Z,3.00
2022-09-07T11:01:00.649Z,2.50
2022-09-07T11:01:59.593Z,3.00
2022-09-07T11:03:59.683Z,2.40
2022-09-07T11:04:59.593Z,2.50
2022-09-07T16:58:37.473Z,2.50
2022-09-07T16:59:36.598Z,2.10
2022-09-07T17:00:36.440Z,1.90
2022-09-07T17:01:36.536Z,1.80
2022-09-07T17:02:36.447Z,1.90
2022-09-07T17:03:36.473Z,1.90
2022-09-07T17:04:37.774Z,2.10
2022-09-07T17:05:36.369Z,2.10
2022-09-07T17:06:36.357Z,2.10
2022-09-07T17:07:36.752Z,1.80
2022-09-07T17:08:36.348Z,2.00
2022-09-07T17:09:36.326Z,2.00
2022-09-07T17:10:36.311Z,2.20
2022-09-07T17:11:36.278Z,2.10
2022-09-07T17:12:36.307Z,2.20
2022-09-07T17:13:36.245Z,2.00
2022-09-07T17:14:36.234Z,2.30
2022-09-07T17:15:37.274Z,2.20
2022-09-07T17:16:36.375Z,2.40
